Aérodrome :
LOGIN :

S'inscrire | Disclaimer

   EN    FR    IT 

 










Légende :    VFR   VFR Marginal   IFR   IFR Intensif   IFR Très Intensif
Visi : 
Plafond : 
>= 8 km
>= 3000ft
5 à 8 km
1000 à 3000 ft
1500m à 5 km
500 à 1000 ft
800 à 1500m
200 à 500 ft
< 800m
< 200 ft
Symboles :   Orages  Brouillard  Fortes neiges  Fortes précipitations  Vent > 20 kt
SIGMETs :   Divers  Orages  Givrage  Turbulence  Onde Orograph.  Cendres Volcan.







- Altitude de l'aérodrome : 276 ft
- Code IATA : RBA


GMME - Rabat

DERNIER METAR :
  • 172230Z 30004KT 270V350 9999 SCT026 18/13 Q1017 NOSIG

METARs EXPIRÉS :
  • 172200Z 30005KT 9999 SCT026 19/13 Q1017 NOSIG
  • 172130Z 30007KT 260V320 9999 BKN026 20/14 Q1017 NOSIG
  • 172100Z 32008KT 9999 BKN026 20/14 Q1017 NOSIG
  • 172030Z 28007KT 230V310 9999 BKN026 21/14 Q1016 NOSIG
  • 172000Z 29007KT 260V320 9999 BKN026 21/14 Q1016 NOSIG

TAF TAF GMME
Valide du 17 à 18h jusqu'au 19 à 00h UTC


171700Z 1718/1824 28010KT 8000 SCT020
BECMG 1802/1806 22005KT BKN016
Pas de NOTAMs connus pour ce terrain.



MET'MAP, la Météo Aéronautique d'un coup d'oeil ! - Copyright ORBIFLY Décembre 2007 - Disclaimer

ORBIFLY MET'MAP TEAM :

Programmation & Développement : Alexandra Zaïnal
Conception & Développement : Baudouin d'Aumeries
Co-Programmation & Développement : Marc-Olivier Méhu
Soutien technique & logistique : Manuel Goepfert

Contact : metmap@orbifly.com




SOURCES & CREDITS :

   NOAA